createdAt,value
2018-10-19T00:05:07.694Z,1.40
2018-10-19T00:07:37.050Z,1.40
2018-10-19T00:10:07.586Z,1.50
2018-10-19T00:12:37.773Z,1.43
2018-10-19T00:15:08.212Z,1.60
2018-10-19T00:17:37.522Z,1.60
2018-10-19T00:20:08.353Z,1.50
2018-10-19T00:22:38.636Z,1.77
2018-10-19T00:25:08.963Z,1.60
2018-10-19T00:27:38.795Z,1.30
2018-10-19T00:30:09.370Z,1.40
2018-10-19T00:32:39.372Z,1.27
2018-10-19T00:35:09.462Z,1.50
2018-10-19T00:37:38.997Z,1.33
2018-10-19T00:40:08.492Z,1.50
2018-10-19T00:42:38.122Z,1.40
2018-10-19T00:45:07.930Z,1.30
2018-10-19T00:47:37.337Z,1.97
2018-10-19T00:50:06.818Z,2.27
2018-10-19T00:52:36.094Z,2.20
2018-10-19T00:55:06.917Z,2.80
2018-10-19T00:57:37.298Z,1.83
2018-10-19T01:00:06.755Z,2.53
2018-10-19T01:02:36.277Z,1.90
2018-10-19T01:05:05.864Z,2.57
2018-10-19T01:07:35.167Z,2.03
2018-10-19T01:10:05.457Z,1.93
2018-10-19T01:12:35.466Z,1.93
2018-10-19T01:15:04.816Z,1.77
2018-10-19T01:17:34.990Z,1.90
2018-10-19T01:20:04.306Z,1.50
2018-10-19T01:22:33.751Z,1.50
2018-10-19T01:25:03.093Z,1.60
2018-10-19T01:27:32.411Z,1.70
2018-10-19T01:30:01.813Z,2.27
2018-10-19T01:32:31.261Z,1.60
2018-10-19T01:35:00.739Z,1.40
2018-10-19T01:37:30.172Z,1.50
2018-10-19T01:39:59.633Z,2.10
2018-10-19T01:42:29.292Z,1.77
2018-10-19T01:44:58.680Z,2.00
2018-10-19T01:47:28.643Z,2.00
2018-10-19T01:49:57.945Z,1.73
2018-10-19T01:52:27.530Z,1.63
2018-10-19T01:54:57.163Z,1.70
2018-10-19T01:57:27.453Z,1.40
2018-10-19T01:59:57.572Z,1.60
2018-10-19T02:02:27.082Z,1.60
2018-10-19T02:04:56.741Z,2.37
2018-10-19T02:07:26.301Z,1.47
2018-10-19T02:09:55.613Z,1.40
2018-10-19T02:12:25.827Z,1.13
2018-10-19T02:14:55.173Z,1.60
2018-10-19T02:17:24.563Z,1.40
2018-10-19T02:19:54.355Z,1.47
2018-10-19T02:22:23.836Z,1.43
2018-10-19T02:24:53.881Z,1.30
2018-10-19T02:27:23.199Z,1.40
2018-10-19T02:29:52.770Z,1.07
2018-10-19T02:32:22.535Z,1.20
2018-10-19T02:34:51.978Z,1.27
2018-10-19T02:37:21.302Z,1.70
2018-10-19T02:39:50.587Z,1.93
2018-10-19T02:42:19.880Z,1.40
2018-10-19T02:44:49.184Z,1.70
2018-10-19T02:47:18.789Z,1.20
2018-10-19T02:49:48.123Z,1.20
2018-10-19T02:52:17.534Z,1.30
2018-10-19T02:54:46.890Z,1.30
2018-10-19T02:57:16.473Z,1.27
2018-10-19T02:59:45.726Z,1.57
2018-10-19T03:02:15.028Z,1.10
2018-10-19T03:04:44.312Z,1.40
2018-10-19T03:07:13.664Z,1.30
2018-10-19T03:09:42.909Z,1.20
2018-10-19T03:12:12.228Z,1.50
2018-10-19T03:14:42.229Z,1.43
2018-10-19T03:17:12.229Z,1.37
2018-10-19T03:19:41.804Z,1.10
2018-10-19T03:22:11.927Z,1.50
2018-10-19T03:24:41.200Z,1.33
2018-10-19T03:27:10.631Z,1.27
2018-10-19T03:29:40.356Z,1.50
2018-10-19T03:32:09.897Z,1.23
2018-10-19T03:34:40.845Z,1.20
2018-10-19T03:37:10.118Z,1.53
2018-10-19T03:39:39.486Z,1.50
2018-10-19T03:42:08.863Z,1.60
2018-10-19T03:44:39.040Z,1.47
2018-10-19T03:47:08.448Z,1.37
2018-10-19T03:49:37.823Z,1.83
2018-10-19T03:52:07.297Z,1.50
2018-10-19T03:54:36.778Z,1.30
2018-10-19T03:57:06.226Z,1.20
2018-10-19T03:59:35.563Z,1.57
2018-10-19T04:02:05.213Z,1.40
2018-10-19T04:04:34.664Z,1.37
2018-10-19T04:07:04.561Z,1.50
2018-10-19T04:09:33.902Z,1.30
2018-10-19T04:12:03.935Z,1.50
2018-10-19T04:14:33.238Z,1.30
2018-10-19T04:17:02.579Z,1.73
2018-10-19T04:19:32.155Z,1.47
2018-10-19T04:22:01.733Z,1.80
2018-10-19T04:24:31.242Z,1.37
2018-10-19T04:27:00.903Z,1.63
2018-10-19T04:29:30.254Z,1.53
2018-10-19T04:31:59.697Z,1.60
2018-10-19T04:34:29.086Z,1.73
2018-10-19T04:37:02.826Z,1.70
2018-10-19T04:39:33.437Z,1.83
2018-10-19T04:42:03.903Z,1.53
2018-10-19T04:44:33.130Z,1.77
2018-10-19T04:47:02.867Z,1.90
2018-10-19T04:49:32.433Z,1.80
2018-10-19T04:52:02.178Z,1.53
2018-10-19T04:54:31.469Z,1.87
2018-10-19T04:57:00.827Z,1.90
2018-10-19T04:59:30.136Z,2.60
2018-10-19T05:01:59.639Z,2.10
2018-10-19T05:04:28.942Z,2.40
2018-10-19T05:06:58.209Z,2.10
2018-10-19T05:09:27.523Z,2.07
2018-10-19T05:11:56.862Z,2.27
2018-10-19T05:14:26.164Z,1.50
2018-10-19T05:16:55.556Z,1.90
2018-10-19T05:19:24.791Z,2.07
2018-10-19T05:21:54.131Z,2.10
2018-10-19T05:24:23.438Z,2.00
2018-10-19T05:26:52.687Z,2.00
2018-10-19T05:29:22.117Z,5.23
2018-10-19T05:31:51.390Z,2.60
2018-10-19T05:34:20.665Z,2.53
2018-10-19T05:36:50.768Z,2.67
2018-10-19T05:39:20.092Z,3.07
2018-10-19T05:41:49.488Z,2.50
2018-10-19T05:44:18.867Z,2.43
2018-10-19T05:46:48.207Z,2.07
2018-10-19T05:49:18.251Z,2.13
2018-10-19T05:51:47.539Z,2.50
2018-10-19T05:54:16.883Z,2.83
2018-10-19T05:56:46.174Z,2.33
2018-10-19T05:59:15.522Z,2.00
2018-10-19T06:01:44.835Z,1.97
2018-10-19T06:04:14.160Z,2.33
2018-10-19T06:06:43.422Z,2.67
2018-10-19T06:09:12.762Z,2.20
2018-10-19T06:11:42.406Z,2.30
2018-10-19T06:14:11.784Z,2.43
2018-10-19T06:16:41.183Z,3.40
2018-10-19T06:19:11.124Z,3.03
2018-10-19T06:21:40.504Z,3.27
2018-10-19T06:24:09.970Z,3.80
2018-10-19T06:26:39.371Z,3.50
2018-10-19T06:29:08.857Z,3.10
2018-10-19T06:31:38.152Z,3.37
2018-10-19T06:34:07.544Z,3.20
2018-10-19T06:36:36.907Z,3.43
2018-10-19T06:39:08.544Z,2.90
2018-10-19T06:41:37.957Z,3.40
2018-10-19T06:44:08.204Z,6.43
2018-10-19T06:46:38.431Z,5.07
2018-10-19T06:49:07.762Z,5.50
2018-10-19T06:51:37.684Z,4.10
2018-10-19T06:54:07.270Z,3.43
2018-10-19T06:56:36.601Z,4.00
2018-10-19T06:59:06.038Z,4.93
2018-10-19T07:01:35.430Z,3.87
2018-10-19T07:04:04.810Z,4.63
2018-10-19T07:06:34.183Z,4.03
2018-10-19T07:09:04.623Z,4.33
2018-10-19T07:11:34.120Z,3.67
2018-10-19T07:14:03.500Z,3.73
2018-10-19T07:16:32.795Z,3.83
2018-10-19T07:19:02.296Z,3.67
2018-10-19T07:21:31.617Z,3.93
2018-10-19T07:24:00.923Z,4.00
2018-10-19T07:26:30.481Z,3.70
2018-10-19T07:28:59.812Z,3.07
2018-10-19T07:31:29.121Z,2.77
2018-10-19T07:33:58.491Z,2.60
2018-10-19T07:36:27.899Z,3.10
2018-10-19T07:38:57.169Z,3.20
2018-10-19T07:41:27.061Z,3.40
2018-10-19T07:43:57.155Z,7.93
2018-10-19T07:46:26.515Z,2.90
2018-10-19T07:48:55.810Z,2.50
2018-10-19T07:51:25.214Z,2.70
2018-10-19T07:53:54.656Z,2.60
2018-10-19T07:56:23.940Z,3.20
2018-10-19T07:58:53.259Z,2.60
2018-10-19T08:01:22.640Z,2.20
2018-10-19T08:03:51.916Z,2.23
2018-10-19T08:06:21.299Z,3.03
2018-10-19T08:08:50.632Z,2.60
2018-10-19T08:11:19.998Z,2.80
2018-10-19T08:13:49.303Z,2.87
2018-10-19T08:16:18.642Z,2.87
2018-10-19T08:18:48.073Z,3.30
2018-10-19T08:21:17.451Z,2.70
2018-10-19T08:23:46.731Z,2.70
2018-10-19T08:26:16.242Z,2.60
2018-10-19T08:28:45.558Z,2.40
2018-10-19T08:31:15.472Z,2.20
2018-10-19T08:33:44.771Z,2.00
2018-10-19T08:36:14.100Z,2.33
2018-10-19T08:38:43.420Z,2.47
2018-10-19T08:41:12.923Z,2.27
2018-10-19T08:43:42.257Z,2.10
2018-10-19T08:46:16.969Z,2.43
2018-10-19T08:48:46.289Z,1.97
2018-10-19T08:51:15.769Z,2.20
2018-10-19T08:53:45.082Z,1.80
2018-10-19T08:56:14.413Z,2.00
2018-10-19T08:58:43.775Z,2.10
2018-10-19T09:01:13.786Z,5.17
2018-10-19T09:03:43.076Z,2.10
2018-10-19T09:06:13.661Z,2.77
2018-10-19T09:08:43.357Z,2.37
2018-10-19T09:11:12.861Z,2.60
2018-10-19T09:13:42.134Z,2.07
2018-10-19T09:16:11.994Z,2.00
2018-10-19T09:18:41.537Z,1.70
2018-10-19T09:21:10.899Z,2.37
2018-10-19T09:23:41.215Z,2.33
2018-10-19T09:26:10.983Z,2.37
2018-10-19T09:28:40.466Z,2.53
2018-10-19T09:31:09.862Z,2.13
2018-10-19T09:33:39.360Z,1.83
2018-10-19T09:36:08.985Z,1.80
2018-10-19T09:38:38.889Z,2.10
2018-10-19T09:41:09.035Z,1.83
2018-10-19T09:43:38.284Z,1.60
2018-10-19T09:46:08.302Z,1.90
2018-10-19T09:48:37.660Z,1.70
2018-10-19T09:51:07.696Z,1.87
2018-10-19T09:53:36.973Z,1.97
2018-10-19T09:56:06.467Z,1.87
2018-10-19T09:58:35.890Z,2.10
2018-10-19T10:01:09.792Z,1.50
2018-10-19T10:03:39.220Z,1.53
2018-10-19T10:06:09.368Z,2.53
2018-10-19T10:08:38.747Z,1.70
2018-10-19T10:11:08.158Z,1.67
2018-10-19T10:13:37.435Z,1.43
2018-10-19T10:16:06.869Z,1.30
2018-10-19T10:18:36.641Z,1.63
2018-10-19T10:21:07.759Z,1.50
2018-10-19T10:23:37.080Z,2.10
2018-10-19T10:26:06.608Z,1.23
2018-10-19T10:28:35.988Z,1.57
2018-10-19T10:31:05.816Z,1.37
2018-10-19T10:33:35.481Z,1.23
2018-10-19T10:36:04.973Z,1.33
2018-10-19T10:38:35.098Z,1.20
2018-10-19T10:41:04.595Z,1.20
2018-10-19T10:43:34.092Z,1.10
2018-10-19T10:46:03.621Z,1.20
2018-10-19T10:48:32.954Z,1.60
2018-10-19T10:51:02.895Z,2.00
2018-10-19T10:53:32.349Z,1.40
2018-10-19T10:56:01.950Z,1.57
2018-10-19T10:58:31.526Z,1.73
2018-10-19T11:01:01.442Z,1.20
2018-10-19T11:03:31.552Z,1.57
2018-10-19T11:06:01.210Z,1.40
2018-10-19T11:08:30.573Z,1.20
2018-10-19T11:11:10.605Z,1.50
2018-10-19T11:13:41.584Z,1.60
2018-10-19T11:16:12.097Z,1.10
2018-10-19T11:18:42.197Z,1.17
2018-10-19T11:21:11.641Z,1.53
2018-10-19T11:23:41.738Z,1.60
2018-10-19T11:26:11.548Z,1.60
2018-10-19T11:28:41.742Z,1.53
2018-10-19T11:31:11.183Z,1.50
2018-10-19T11:33:40.497Z,1.60
2018-10-19T11:36:09.937Z,1.70
2018-10-19T11:38:40.186Z,1.60
2018-10-19T11:41:09.766Z,1.43
2018-10-19T11:43:39.115Z,1.50
2018-10-19T11:46:08.458Z,1.80
2018-10-19T11:48:38.909Z,1.50
2018-10-19T11:51:08.383Z,2.00
2018-10-19T11:53:37.732Z,1.57
2018-10-19T11:56:07.649Z,1.50
2018-10-19T11:58:37.237Z,1.60
2018-10-19T12:01:06.654Z,1.70
2018-10-19T12:03:37.505Z,1.80
2018-10-19T12:06:07.213Z,1.40
2018-10-19T12:08:37.391Z,1.67
2018-10-19T12:11:06.949Z,1.43
2018-10-19T12:13:36.297Z,1.70
2018-10-19T12:16:06.354Z,1.43
2018-10-19T12:18:36.000Z,1.70
2018-10-19T12:21:05.566Z,1.70
2018-10-19T12:23:35.561Z,1.63
2018-10-19T12:26:05.194Z,1.70
2018-10-19T12:28:35.401Z,1.80
2018-10-19T12:31:04.868Z,1.37
2018-10-19T12:33:34.195Z,1.80
2018-10-19T12:36:03.630Z,1.80
2018-10-19T12:38:32.955Z,1.93
2018-10-19T12:41:02.357Z,1.80
2018-10-19T12:43:31.700Z,2.10
2018-10-19T12:46:22.727Z,2.03
2018-10-19T12:48:53.376Z,2.50
2018-10-19T12:51:23.035Z,1.90
2018-10-19T12:53:53.477Z,2.10
2018-10-19T12:56:23.543Z,2.10
2018-10-19T12:58:54.471Z,2.20
2018-10-19T13:01:24.883Z,1.77
2018-10-19T13:03:54.289Z,2.33
2018-10-19T13:06:23.649Z,2.27
2018-10-19T13:08:53.401Z,2.00
2018-10-19T13:11:23.720Z,2.10
2018-10-19T13:13:53.322Z,1.80
2018-10-19T13:16:22.991Z,2.10
2018-10-19T13:18:52.627Z,2.10
2018-10-19T13:21:22.076Z,2.13
2018-10-19T13:23:51.576Z,1.57
2018-10-19T13:26:21.041Z,1.83
2018-10-19T13:28:50.548Z,2.20
2018-10-19T13:31:19.927Z,2.03
2018-10-19T13:33:49.424Z,1.90
2018-10-19T13:36:18.874Z,2.13
2018-10-19T13:38:48.456Z,2.60
2018-10-19T13:41:18.060Z,2.10
2018-10-19T13:43:48.081Z,2.37
2018-10-19T13:46:18.150Z,2.10
2018-10-19T13:48:48.656Z,2.43
2018-10-19T13:51:18.655Z,1.70
2018-10-19T13:53:48.072Z,2.10
2018-10-19T13:56:18.276Z,2.00
2018-10-19T13:58:48.314Z,1.63
2018-10-19T14:01:19.015Z,2.07
2018-10-19T14:03:48.584Z,2.17
2018-10-19T14:06:17.927Z,2.63
2018-10-19T14:08:47.423Z,2.20
2018-10-19T14:11:16.867Z,1.87
2018-10-19T14:13:46.134Z,1.90
2018-10-19T14:16:15.461Z,2.00
2018-10-19T14:18:44.785Z,2.13
2018-10-19T14:21:14.907Z,2.30
2018-10-19T14:23:44.328Z,2.30
2018-10-19T14:26:15.180Z,2.17
2018-10-19T14:28:44.733Z,2.20
2018-10-19T14:31:14.063Z,2.10
2018-10-19T14:33:45.125Z,2.30
2018-10-19T14:36:14.404Z,3.20
2018-10-19T14:38:43.955Z,2.37
2018-10-19T14:41:14.115Z,2.33
2018-10-19T14:43:44.529Z,2.10
2018-10-19T14:46:14.044Z,2.27
2018-10-19T14:48:44.406Z,2.40
2018-10-19T14:51:14.342Z,2.27
2018-10-19T14:53:44.588Z,2.60
2018-10-19T14:56:15.789Z,2.70
2018-10-19T14:58:45.751Z,3.10
2018-10-19T15:01:16.933Z,2.50
2018-10-19T15:03:47.213Z,2.60
2018-10-19T15:06:17.572Z,2.60
2018-10-19T15:08:46.996Z,2.47
2018-10-19T15:11:17.919Z,2.97
2018-10-19T15:13:47.252Z,2.40
2018-10-19T15:16:16.624Z,2.73
2018-10-19T15:18:46.906Z,2.80
2018-10-19T15:21:16.648Z,2.73
2018-10-19T15:23:46.342Z,2.50
2018-10-19T15:26:16.461Z,2.60
2018-10-19T15:28:45.978Z,2.20
2018-10-19T15:31:15.579Z,2.10
2018-10-19T15:33:44.989Z,2.20
2018-10-19T15:36:14.548Z,1.93
2018-10-19T15:38:44.025Z,2.13
2018-10-19T15:41:14.279Z,2.40
2018-10-19T15:43:44.045Z,1.67
2018-10-19T15:46:14.163Z,1.90
2018-10-19T15:48:45.036Z,2.13
2018-10-19T15:51:14.724Z,2.10
2018-10-19T15:53:44.078Z,1.67
2018-10-19T15:56:14.018Z,2.03
2018-10-19T15:58:43.432Z,1.77
2018-10-19T16:01:12.820Z,2.10
2018-10-19T16:03:42.736Z,2.40
2018-10-19T16:06:12.129Z,1.80
2018-10-19T16:08:41.493Z,2.37
2018-10-19T16:11:10.843Z,2.33
2018-10-19T16:13:40.277Z,2.20
2018-10-19T16:16:09.808Z,2.60
2018-10-19T16:18:39.131Z,2.80
2018-10-19T16:21:08.624Z,2.93
2018-10-19T16:23:37.893Z,2.93
2018-10-19T16:26:07.330Z,3.50
2018-10-19T16:28:36.923Z,3.57
2018-10-19T16:31:06.273Z,3.27
2018-10-19T16:33:35.591Z,3.70
2018-10-19T16:36:05.463Z,7.03
2018-10-19T16:38:34.867Z,6.23
2018-10-19T16:41:04.302Z,3.63
2018-10-19T16:43:33.600Z,3.10
2018-10-19T16:46:03.053Z,3.93
2018-10-19T16:48:32.564Z,4.27
2018-10-19T16:51:01.964Z,3.27
2018-10-19T16:53:31.391Z,3.37
2018-10-19T16:56:00.664Z,3.90
2018-10-19T16:58:29.960Z,5.20
2018-10-19T17:00:59.313Z,6.77
2018-10-19T17:03:28.800Z,4.37
2018-10-19T17:05:58.121Z,3.53
2018-10-19T17:08:27.645Z,3.70
2018-10-19T17:10:56.935Z,3.30
2018-10-19T17:13:26.279Z,3.83
2018-10-19T17:15:55.627Z,4.20
2018-10-19T17:18:24.928Z,4.07
2018-10-19T17:20:55.067Z,4.10
2018-10-19T17:23:24.346Z,4.37
2018-10-19T17:25:54.408Z,5.03
2018-10-19T17:28:23.731Z,4.63
2018-10-19T17:30:53.106Z,5.63
2018-10-19T17:33:22.400Z,6.70
2018-10-19T17:35:52.333Z,9.53
2018-10-19T17:38:21.642Z,10.20
2018-10-19T17:40:51.024Z,8.63
2018-10-19T17:43:20.464Z,7.90
2018-10-19T17:45:50.540Z,10.10
2018-10-19T17:48:19.989Z,9.97
2018-10-19T17:50:49.403Z,10.00
2018-10-19T17:53:18.739Z,10.13
2018-10-19T17:55:48.143Z,8.67
2018-10-19T17:58:17.499Z,9.10
2018-10-19T18:00:46.884Z,9.23
2018-10-19T18:03:16.238Z,9.10
2018-10-19T18:05:45.769Z,7.60
2018-10-19T18:08:15.061Z,7.60
2018-10-19T18:10:44.610Z,9.33
2018-10-19T18:13:13.913Z,7.47
2018-10-19T18:15:43.235Z,5.40
2018-10-19T18:18:12.581Z,5.33
2018-10-19T18:20:42.032Z,6.43
2018-10-19T18:23:11.571Z,6.43
2018-10-19T18:25:40.794Z,4.87
2018-10-19T18:28:10.141Z,4.43
2018-10-19T18:30:39.512Z,6.57
2018-10-19T18:33:10.209Z,5.90
2018-10-19T18:35:39.628Z,6.83
2018-10-19T18:38:09.656Z,7.37
2018-10-19T18:40:38.973Z,7.80
2018-10-19T18:43:08.375Z,6.27
2018-10-19T18:45:37.739Z,5.93
2018-10-19T18:48:07.197Z,7.17
2018-10-19T18:50:36.553Z,7.30
2018-10-19T18:53:06.396Z,6.43
2018-10-19T18:55:35.904Z,6.20
2018-10-19T18:58:05.233Z,6.53
2018-10-19T19:00:34.587Z,7.20
2018-10-19T19:03:03.912Z,7.53
2018-10-19T19:05:33.197Z,7.50
2018-10-19T19:08:02.621Z,8.80
2018-10-19T19:10:32.776Z,7.07
2018-10-19T19:13:07.570Z,7.10
2018-10-19T19:15:36.916Z,7.23
2018-10-19T19:18:06.289Z,7.33
2018-10-19T19:20:35.666Z,6.97
2018-10-19T19:23:05.258Z,6.60
2018-10-19T19:25:39.925Z,7.80
2018-10-19T19:28:09.233Z,7.87
2018-10-19T19:30:38.640Z,6.43
2018-10-19T19:33:13.795Z,6.97
2018-10-19T19:35:43.136Z,6.30
2018-10-19T19:38:12.541Z,6.33
2018-10-19T19:40:47.297Z,6.40
2018-10-19T19:43:16.653Z,6.80
2018-10-19T19:45:46.110Z,6.53
2018-10-19T19:48:20.902Z,6.60
2018-10-19T19:50:50.200Z,6.07
2018-10-19T19:53:19.467Z,6.57
2018-10-19T19:55:48.830Z,7.00
2018-10-19T19:58:18.182Z,8.30
2018-10-19T20:00:47.470Z,7.33
2018-10-19T20:03:16.791Z,7.90
2018-10-19T20:05:46.102Z,7.97
2018-10-19T20:08:15.557Z,7.30
2018-10-19T20:10:44.908Z,6.17
2018-10-19T20:13:14.258Z,6.50
2018-10-19T20:15:43.604Z,6.47
2018-10-19T20:18:13.079Z,7.30
2018-10-19T20:20:42.598Z,6.87
2018-10-19T20:23:12.016Z,7.23
2018-10-19T20:25:41.294Z,8.33
2018-10-19T20:28:10.615Z,9.27
2018-10-19T20:30:39.974Z,9.17
2018-10-19T20:33:09.303Z,8.63
2018-10-19T20:35:38.672Z,10.13
2018-10-19T20:38:09.087Z,9.93
2018-10-19T20:40:38.364Z,8.93
2018-10-19T20:43:07.699Z,9.83
2018-10-19T20:45:37.021Z,10.70
2018-10-19T20:48:07.352Z,16.80
2018-10-19T20:50:36.808Z,21.90
2018-10-19T20:53:06.225Z,15.90
2018-10-19T20:55:35.599Z,10.93
2018-10-19T20:58:04.981Z,9.90
2018-10-19T21:00:34.360Z,9.77
2018-10-19T21:03:04.377Z,9.63
2018-10-19T21:05:33.725Z,9.73
2018-10-19T21:08:03.136Z,10.73
2018-10-19T21:10:32.413Z,11.00
2018-10-19T21:13:01.890Z,11.67
2018-10-19T21:15:31.312Z,12.10
2018-10-19T21:18:00.683Z,11.13
2018-10-19T21:20:30.050Z,12.80
2018-10-19T21:23:00.147Z,9.70
2018-10-19T21:25:29.447Z,11.80
2018-10-19T21:27:58.781Z,11.70
2018-10-19T21:30:28.089Z,12.50
2018-10-19T21:32:57.397Z,10.87
2018-10-19T21:35:26.673Z,12.27
2018-10-19T21:37:57.516Z,14.27
2018-10-19T21:40:26.959Z,12.60
2018-10-19T21:42:56.937Z,11.33
2018-10-19T21:45:26.862Z,12.67
2018-10-19T21:47:56.205Z,10.97
2018-10-19T21:50:25.496Z,11.57
2018-10-19T21:52:55.095Z,11.73
2018-10-19T21:55:24.543Z,12.30
2018-10-19T21:57:53.852Z,10.73
2018-10-19T22:00:23.362Z,11.27
2018-10-19T22:02:52.671Z,12.20
2018-10-19T22:05:22.016Z,12.87
2018-10-19T22:07:51.440Z,12.00
2018-10-19T22:10:20.765Z,12.47
2018-10-19T22:12:50.133Z,11.43
2018-10-19T22:15:19.543Z,10.40
2018-10-19T22:17:48.894Z,10.67
2018-10-19T22:20:18.315Z,11.40
2018-10-19T22:22:48.353Z,11.07
2018-10-19T22:25:17.775Z,10.77
2018-10-19T22:27:47.117Z,10.47
2018-10-19T22:30:16.993Z,10.87
2018-10-19T22:32:47.147Z,10.03
2018-10-19T22:35:17.551Z,10.10
2018-10-19T22:37:47.686Z,11.33
2018-10-19T22:40:17.047Z,12.30
2018-10-19T22:42:46.487Z,10.70
2018-10-19T22:45:15.767Z,11.10
2018-10-19T22:47:45.236Z,14.77
2018-10-19T22:50:14.538Z,11.27
2018-10-19T22:52:43.899Z,10.30
2018-10-19T22:55:13.335Z,9.23
2018-10-19T22:57:42.610Z,8.50
2018-10-19T23:00:11.906Z,9.13
2018-10-19T23:02:41.220Z,8.73
2018-10-19T23:05:10.565Z,10.17
2018-10-19T23:07:39.979Z,12.10
2018-10-19T23:10:09.892Z,13.30
2018-10-19T23:12:39.284Z,12.87
2018-10-19T23:15:08.746Z,13.90
2018-10-19T23:17:38.383Z,14.83
2018-10-19T23:20:08.440Z,15.13
2018-10-19T23:22:37.813Z,15.70
2018-10-19T23:25:07.686Z,17.17
2018-10-19T23:27:37.081Z,18.10
2018-10-19T23:30:07.013Z,16.63
2018-10-19T23:32:36.313Z,17.57
2018-10-19T23:35:06.595Z,18.10
2018-10-19T23:37:35.925Z,17.90
2018-10-19T23:40:07.131Z,17.47
2018-10-19T23:42:36.437Z,16.77
2018-10-19T23:45:07.335Z,16.37
2018-10-19T23:47:37.423Z,16.73
2018-10-19T23:50:07.608Z,16.43
2018-10-19T23:52:36.939Z,15.73
2018-10-19T23:55:06.668Z,15.40
2018-10-19T23:57:35.954Z,15.23
